Latest Weather Observations for Beaudesert AWS

IDQ60901

Issued at 8:11 am EST Monday 22 December 2014 (issued every 10 minutes, with the page automatically refreshed every 10 minutes)

About weather observations | Map of Brisbane area stations | Latest observations for Brisbane area | Other Formats
Station Details ID: 040983 Name: BEAUDESERT DRUMLEY STREET Lat: -27.97 Lon: 152.99 Height: 47.81 m
Data from the previous 72 hours. | See also: Recent months at Beaudesert AWS
Date/Time
EST
Tmp

°C
App
Tmp
°C
Dew
Point
°C
Rel
Hum
%
Delta-T

°C
Wind Press
QNH
hPa
Press
MSL
hPa
Rain
since
9 am
mm
Dir
 
Spd
km/h
Gust
km/h
Spd
kts
Gust
kts
22/08:00am 24.6 24.2 15.2 55 5.6 ESE 11 20 6 11 1018.2 1018.0 0.0
22/07:30am 24.1 25.0 16.1 61 4.9 ESE 6 11 3 6 1018.0 1017.8 0.0
22/07:00am 22.7 24.1 16.3 67 3.9 SW 4 6 2 3 1017.9 1017.7 0.0
22/06:30am 21.1 23.0 16.7 76 2.7 WSW 2 4 1 2 1017.6 1017.4 0.0
22/06:00am 19.9 22.0 16.3 80 2.2 CALM 0 0 0 0 1017.2 1017.0 0.0
22/05:30am 19.4 21.1 16.1 81 2.0 E 2 4 1 2 1017.1 1016.9 0.0
22/05:00am 18.3 19.4 15.7 85 1.5 ESE 4 4 2 2 1017.1 1016.9 0.0
22/04:30am 18.3 19.8 15.7 85 1.5 SSE 2 4 1 2 1016.7 1016.5 0.0
22/04:00am 18.5 20.3 15.6 83 1.7 CALM 0 4 0 2 1016.3 1016.1 0.0
22/03:30am 19.3 21.2 15.8 80 2.1 CALM 0 0 0 0 1016.2 1016.0 0.0
22/03:00am 20.0 22.0 16.0 78 2.4 CALM 0 0 0 0 1016.3 1016.1 0.0
22/02:30am 21.0 22.2 16.0 73 3.0 ESE 4 6 2 3 1016.4 1016.2 0.0
22/02:00am 21.7 23.7 16.0 70 3.4 CALM 0 0 0 0 1016.7 1016.5 0.0
22/01:30am 21.9 23.9 16.0 69 3.6 CALM 0 0 0 0 1016.8 1016.6 0.0
22/01:00am 22.1 23.3 15.9 68 3.7 E 4 7 2 4 1017.1 1016.9 0.0
22/12:30am 22.3 23.1 15.9 67 3.9 E 6 13 3 7 1017.4 1017.2 0.0
22/12:00am 22.2 23.5 16.2 69 3.6 ESE 4 6 2 3 1017.9 1017.7 0.0
 
Date/Time
EST
Tmp

°C
App
Tmp
°C
Dew
Point
°C
Rel
Hum
%
Delta-T

°C
Wind Press
QNH
hPa
Press
MSL
hPa
Rain
since
9 am
mm
Dir
 
Spd
km/h
Gust
km/h
Spd
kts
Gust
kts
21/11:30pm 22.3 24.3 15.9 67 3.9 CALM 0 2 0 1 1018.5 1018.3 0.0
21/11:00pm 22.5 24.2 16.3 68 3.8 ENE 2 4 1 2 1018.5 1018.3 0.0
21/10:30pm 22.7 23.9 16.0 66 4.1 ENE 4 7 2 4 1018.5 1018.3 0.0
21/10:00pm 22.7 24.3 16.0 66 4.0 ENE 2 7 1 4 1018.4 1018.2 0.0
21/09:30pm 22.6 23.3 16.2 67 3.9 ENE 7 13 4 7 1018.0 1017.8 0.0
21/09:00pm 22.6 23.4 16.4 68 3.8 E 7 11 4 6 1017.9 1017.7 0.0
21/08:30pm 22.8 23.3 16.6 68 3.8 ENE 9 15 5 8 1017.7 1017.5 0.0
21/08:00pm 23.1 24.0 16.6 67 4.0 E 7 15 4 8 1018.0 1017.8 0.0
21/07:30pm 23.3 24.3 16.8 67 4.0 ENE 7 13 4 7 1017.6 1017.4 0.0
21/07:00pm 23.4 24.0 16.9 67 4.0 ENE 9 19 5 10 1017.3 1017.1 0.0
21/06:30pm 23.5 23.3 16.8 66 4.1 ENE 13 22 7 12 1016.6 1016.4 0.0
21/06:00pm 23.9 23.4 16.9 65 4.3 E 15 26 8 14 1016.1 1015.9 0.0
21/05:30pm 24.7 23.7 16.7 61 4.9 E 17 26 9 14 1015.8 1015.6 0.0
21/05:00pm 25.0 24.9 17.0 61 5.0 E 13 20 7 11 1015.5 1015.3 0.0
21/04:30pm 26.3 26.8 17.4 58 5.6 E 11 17 6 9 1015.1 1014.9 0.0
21/04:00pm 26.2 25.6 16.7 56 5.9 ENE 15 24 8 13 1015.0 1014.8 0.0
21/03:30pm 27.2 27.2 17.1 54 6.3 NE 13 22 7 12 1015.2 1015.0 0.0
21/03:00pm 27.1 26.5 16.7 53 6.5 ENE 15 24 8 13 1015.1 1014.9 0.0
21/02:30pm 28.3 28.7 17.2 51 7.0 NE 11 20 6 11 1015.4 1015.2 0.0
21/02:00pm 27.9 28.2 17.1 51 6.8 NE 11 20 6 11 1015.7 1015.5 0.0
21/01:30pm 29.0 29.7 16.2 46 8.0 NE 7 13 4 7 1015.8 1015.6 0.0
21/01:00pm 28.2 29.1 16.5 49 7.3 NNE 7 20 4 11 1016.2 1016.0 0.0
21/12:30pm 28.0 28.9 16.0 48 7.4 NNE 6 13 3 7 1016.6 1016.4 0.0
21/12:00pm 27.2 28.5 16.2 51 6.8 NNW 4 7 2 4 1017.2 1017.0 0.0
21/11:30am 27.6 28.9 17.5 54 6.4 NNE 7 13 4 7 1017.5 1017.3 0.0
21/11:00am 27.0 28.3 17.5 56 6.0 NE 7 13 4 7 1017.9 1017.7 0.0
21/10:30am 26.1 27.6 16.6 55 5.9 NNE 4 9 2 5 1018.3 1018.1 0.0
21/10:00am 25.3 26.4 16.7 59 5.3 SSW 6 7 3 4 1018.4 1018.2 0.0
21/09:30am 25.3 27.0 16.2 57 5.6 W 2 6 1 3 1018.4 1018.2 0.0
21/09:00am 25.2 26.5 17.1 60 5.0 W 6 7 3 4 1018.4 1018.2 0.0
21/08:30am 24.6 26.5 16.6 61 4.9 SSE 2 4 1 2 1018.5 1018.3 0.0
21/08:00am 24.3 25.2 16.6 62 4.7 E 7 13 4 7 1018.4 1018.2 0.0
21/07:30am 24.3 27.0 17.8 67 4.1 CALM 0 4 0 2 1018.2 1018.0 0.0
21/07:00am 23.3 25.8 17.3 69 3.7 CALM 0 4 0 2 1018.1 1017.9 0.0
21/06:30am 22.0 25.0 18.4 80 2.3 CALM 0 0 0 0 1017.7 1017.5 0.0
21/06:00am 21.3 24.2 18.1 82 2.0 CALM 0 0 0 0 1017.6 1017.4 0.0
21/05:30am 21.2 24.2 18.4 84 1.8 CALM 0 0 0 0 1017.2 1017.0 0.0
21/05:00am 21.0 23.7 17.8 82 2.0 CALM 0 0 0 0 1016.9 1016.7 0.0
21/04:30am 21.0 24.0 18.4 85 1.6 CALM 0 0 0 0 1016.7 1016.5 0.0
21/04:00am 20.8 23.5 17.8 83 1.9 CALM 0 0 0 0 1016.4 1016.2 0.0
21/03:30am 20.8 23.6 18.0 84 1.7 CALM 0 0 0 0 1016.3 1016.1 0.0
21/03:00am 20.7 23.5 17.9 84 1.7 CALM 0 0 0 0 1016.4 1016.2 0.0
21/02:30am 20.4 23.2 18.0 86 1.5 CALM 0 2 0 1 1016.3 1016.1 0.0
21/02:00am 20.3 23.0 17.7 85 1.6 CALM 0 0 0 0 1016.3 1016.1 0.0
21/01:30am 20.0 22.6 17.6 86 1.5 CALM 0 0 0 0 1016.5 1016.3 0.0
21/01:00am 20.1 22.7 17.5 85 1.6 CALM 0 0 0 0 1016.8 1016.6 0.0
21/12:30am 19.7 22.1 17.1 85 1.6 CALM 0 0 0 0 1017.0 1016.8 0.0
21/12:00am 19.5 21.9 17.1 86 1.5 CALM 0 0 0 0 1017.3 1017.1 0.0
 
Date/Time
EST
Tmp

°C
App
Tmp
°C
Dew
Point
°C
Rel
Hum
%
Delta-T

°C
Wind Press
QNH
hPa
Press
MSL
hPa
Rain
since
9 am
mm
Dir
 
Spd
km/h
Gust
km/h
Spd
kts
Gust
kts
20/11:30pm 19.3 21.5 16.5 84 1.7 CALM 0 0 0 0 1017.3 1017.1 0.0
20/11:00pm 20.1 22.3 16.5 80 2.2 CALM 0 0 0 0 1017.4 1017.2 0.0
20/10:30pm 20.4 22.6 16.4 78 2.4 CALM 0 0 0 0 1017.7 1017.5 0.0
20/10:00pm 20.5 22.5 15.9 75 2.7 CALM 0 4 0 2 1017.6 1017.4 0.0
20/09:30pm 21.6 23.7 16.3 72 3.2 CALM 0 0 0 0 1017.7 1017.5 0.0
20/09:00pm 22.2 24.3 16.2 69 3.6 CALM 0 4 0 2 1017.6 1017.4 0.0
20/08:30pm 22.4 23.3 16.2 68 3.8 E 6 7 3 4 1017.1 1016.9 0.0
20/08:00pm 22.7 23.7 16.3 67 3.9 ENE 6 11 3 6 1016.5 1016.3 0.0
20/07:30pm 22.8 23.5 16.1 66 4.1 E 7 15 4 8 1016.1 1015.9 0.0
20/07:00pm 23.3 23.2 16.1 64 4.4 E 11 17 6 9 1015.6 1015.4 0.0
20/06:30pm 23.8 23.6 15.6 60 5.0 E 11 17 6 9 1015.2 1015.0 0.0
20/06:00pm 24.7 24.0 15.3 56 5.7 E 13 24 7 13 1014.7 1014.5 0.0
20/05:30pm 25.4 24.1 14.8 52 6.4 E 15 22 8 12 1014.3 1014.1 0.0
20/05:00pm 26.1 25.0 15.2 51 6.6 E 15 22 8 12 1013.6 1013.4 0.0
20/04:30pm 26.2 24.7 15.3 51 6.6 ESE 17 24 9 13 1013.3 1013.1 0.0
20/04:00pm 26.9 25.3 15.0 48 7.2 E 17 30 9 16 1013.3 1013.1 0.0
20/03:30pm 27.1 26.1 15.5 49 7.1 E 15 20 8 11 1013.2 1013.0 0.0
20/03:00pm 26.6 25.6 14.7 48 7.2 E 13 20 7 11 1013.4 1013.2 0.0
20/02:30pm 27.4 26.5 14.8 46 7.6 E 13 22 7 12 1013.8 1013.6 0.0
20/02:00pm 28.4 27.4 15.7 46 7.8 E 15 24 8 13 1013.9 1013.7 0.0
20/01:30pm 27.4 26.2 15.1 47 7.5 ENE 15 24 8 13 1014.2 1014.0 0.0
20/01:00pm 28.4 28.7 17.0 50 7.2 ENE 11 24 6 13 1014.5 1014.3 0.0
20/12:30pm 27.9 28.3 15.2 46 7.7 E 7 15 4 8 1014.8 1014.6 0.0
20/12:00pm 27.2 26.6 14.6 46 7.6 ESE 11 17 6 9 1015.1 1014.9 0.0
20/11:30am 27.1 27.3 15.8 50 6.9 ENE 9 13 5 7 1015.6 1015.4 0.0
20/11:00am 27.0 27.0 15.1 48 7.2 ENE 9 17 5 9 1015.8 1015.6 0.0
20/10:30am 26.8 27.1 16.1 52 6.6 ENE 9 19 5 10 1016.0 1015.8 0.0
20/10:00am 27.3 27.2 15.0 47 7.4 E 9 17 5 9 1016.1 1015.9 0.0
20/09:30am 26.3 26.5 14.7 48 7.0 ESE 7 19 4 10 1016.1 1015.9 0.0
20/09:00am 26.1 26.2 15.5 52 6.4 SE 9 15 5 8 1016.1 1015.9 0.0
20/08:30am 25.8 25.7 14.9 51 6.6 E 9 20 5 11 1016.1 1015.9 0.0
20/08:00am 25.3 26.7 16.4 57 5.5 SE 4 7 2 4 1016.0 1015.8 0.0
20/07:30am 24.1 25.2 16.6 63 4.6 S 6 7 3 4 1016.0 1015.8 0.0
20/07:00am 22.8 24.8 17.0 70 3.6 SW 2 4 1 2 1015.8 1015.6 0.0
20/06:30am 21.7 23.9 17.5 77 2.6 SSW 2 4 1 2 1015.5 1015.3 0.0
20/06:00am 20.9 23.1 17.5 81 2.1 SSE 2 4 1 2 1015.1 1014.9 0.0
20/05:30am 19.5 22.1 17.6 89 1.2 CALM 0 6 0 3 1014.9 1014.7 0.0
20/05:00am 18.8 21.1 16.8 88 1.2 CALM 0 0 0 0 1014.6 1014.4 0.0
20/04:30am 19.1 21.5 16.9 87 1.3 CALM 0 0 0 0 1014.3 1014.1 0.0
20/04:00am 19.5 21.9 17.1 86 1.5 CALM 0 0 0 0 1014.0 1013.8 0.0
20/03:30am 19.9 22.5 17.5 86 1.5 CALM 0 0 0 0 1013.9 1013.7 0.0
20/03:00am 20.4 23.0 17.6 84 1.7 CALM 0 0 0 0 1013.8 1013.6 0.0
20/02:30am 20.8 23.6 18.0 84 1.7 CALM 0 0 0 0 1013.6 1013.4 0.0
20/02:00am 20.1 22.9 17.9 87 1.4 CALM 0 0 0 0 1013.6 1013.4 0.0
20/01:30am 20.4 23.2 18.0 86 1.5 CALM 0 0 0 0 1013.6 1013.4 0.0
20/01:00am 20.4 23.1 17.8 85 1.6 CALM 0 0 0 0 1013.7 1013.5 0.0
20/12:30am 20.8 23.4 17.6 82 2.0 CALM 0 0 0 0 1013.9 1013.7 0.0
20/12:00am 21.7 24.5 17.9 79 2.4 CALM 0 0 0 0 1014.0 1013.8 0.0
 
Date/Time
EST
Tmp

°C
App
Tmp
°C
Dew
Point
°C
Rel
Hum
%
Delta-T

°C
Wind Press
QNH
hPa
Press
MSL
hPa
Rain
since
9 am
mm
Dir
 
Spd
km/h
Gust
km/h
Spd
kts
Gust
kts
19/11:30pm 22.1 24.9 17.9 77 2.6 CALM 0 0 0 0 1014.2 1014.0 0.0
19/11:00pm 22.7 24.9 18.3 76 2.8 S 4 6 2 3 1014.2 1014.0 0.0
19/10:30pm 22.6 25.1 18.2 76 2.8 SE 2 6 1 3 1014.2 1014.0 0.0
19/10:00pm 22.1 23.9 17.5 75 2.8 SSW 4 6 2 3 1014.0 1013.8 0.0
19/09:30pm 23.6 26.0 17.1 67 4.0 CALM 0 2 0 1 1013.7 1013.5 0.0
19/09:00pm 24.6 25.8 16.8 62 4.8 ESE 6 9 3 5 1013.4 1013.2 0.0
19/08:30pm 25.1 25.7 16.8 60 5.1 SE 9 15 5 8 1012.8 1012.6 0.0
19/08:00pm 25.3 26.6 17.0 60 5.2 SE 6 13 3 7 1012.4 1012.2 0.0
19/07:30pm 25.7 25.8 17.4 60 5.2 ESE 13 26 7 14 1011.8 1011.6 0.0
19/07:00pm 26.2 25.2 16.7 56 5.9 E 17 28 9 15 1010.9 1010.7 0.0
19/06:30pm 27.1 25.3 16.1 51 6.8 E 20 35 11 19 1010.3 1010.0 0.0
19/06:00pm 28.7 27.5 17.6 51 7.0 ESE 20 39 11 21 1009.3 1009.0 0.0
19/05:30pm 32.2 32.5 13.4 32 11.3 NE 4 7 2 4 1008.5 1008.2 0.0
19/05:00pm 32.4 32.5 12.6 30 11.8 N 4 6 2 3 1008.1 1007.8 0.0
19/04:30pm 32.1 32.4 13.3 31 11.3 NNW 4 6 2 3 1007.9 1007.6 0.0
19/04:00pm 33.2 33.1 12.2 28 12.5 NNW 4 6 2 3 1007.6 1007.3 0.0
19/03:30pm 33.1 33.0 12.1 27 12.5 NW 4 11 2 6 1007.8 1007.5 0.0
19/03:00pm 32.7 32.9 14.3 32 11.3 NNW 6 11 3 6 1008.0 1007.7 0.0
19/02:30pm 31.9 33.3 15.4 37 10.2 NW 2 7 1 4 1008.5 1008.2 0.0
19/02:00pm 32.2 33.3 15.7 37 10.3 NW 4 9 2 5 1008.8 1008.5 0.0
19/01:30pm 31.2 33.4 17.5 44 8.7 SE 2 6 1 3 1009.2 1008.9 0.0
19/01:00pm 30.7 32.5 17.4 45 8.5 SW 4 7 2 4 1009.6 1009.3 0.0
19/12:30pm 29.9 32.4 19.0 52 7.1 E 4 9 2 5 1009.9 1009.6 0.0
19/12:00pm 29.3 31.9 18.4 51 7.0 W 2 9 1 5 1010.4 1010.1 0.0
19/11:30am 28.3 30.3 17.8 53 6.7 SSE 4 7 2 4 1010.7 1010.4 0.0
19/11:00am 27.4 29.5 18.1 57 5.9 ESE 4 9 2 5 1011.0 1010.8 0.0
19/10:30am 26.4 28.2 18.3 61 5.1 SE 6 9 3 5 1011.2 1011.0 0.0
19/10:00am 26.2 29.0 19.6 67 4.3 SSE 4 6 2 3 1011.3 1011.1 0.0
19/09:30am 25.4 28.3 19.1 68 4.0 SSW 2 6 1 3 1011.6 1011.4 0.0
19/09:00am 24.0 26.1 18.0 69 3.8 WNW 4 7 2 4 1011.8 1011.6 15.2
19/08:30am 23.6 26.2 18.5 73 3.2 ENE 2 6 1 3 1012.1 1011.9 15.2

Latest Capital City Observations: Canberra | Sydney | Melbourne | Brisbane | Adelaide | Perth | Hobart | Darwin

Other Formats:

Comma delimited format used in spreadsheet applications
http://www.bom.gov.au/fwo/IDQ60901/IDQ60901.95575.axf

JavaScript Object Notation format (JSON) in row-major order
http://www.bom.gov.au/fwo/IDQ60901/IDQ60901.95575.json